sensor_id;sensor_type;location;lat;lon;timestamp;pressure;altitude;pressure_sealevel;temperature;humidity
45369;BME280;51342;55.250;37.668;2023-04-28T00:03:30;99017.56;;;11.01;64.87
45369;BME280;51342;55.250;37.668;2023-04-28T00:06:02;99023.63;;;11.02;65.07
45369;BME280;51342;55.250;37.668;2023-04-28T00:08:33;99028.03;;;11.04;65.07
45369;BME280;51342;55.250;37.668;2023-04-28T00:11:09;99021.94;;;11.02;64.96
45369;BME280;51342;55.250;37.668;2023-04-28T00:13:41;99018.44;;;11.02;64.88
45369;BME280;51342;55.250;37.668;2023-04-28T00:16:12;99019.28;;;11.01;65.15
45369;BME280;51342;55.250;37.668;2023-04-28T00:18:43;99020.88;;;10.99;65.31
45369;BME280;51342;55.250;37.668;2023-04-28T00:21:15;99029.41;;;10.96;65.29
45369;BME280;51342;55.250;37.668;2023-04-28T00:23:47;99025.72;;;10.91;65.22
45369;BME280;51342;55.250;37.668;2023-04-28T00:26:19;99024.09;;;10.93;65.23
45369;BME280;51342;55.250;37.668;2023-04-28T00:28:51;99025.53;;;10.86;65.38
45369;BME280;51342;55.250;37.668;2023-04-28T00:31:23;99029.94;;;10.89;65.49
45369;BME280;51342;55.250;37.668;2023-04-28T00:33:54;99026.41;;;10.87;65.65
45369;BME280;51342;55.250;37.668;2023-04-28T00:36:25;99029.94;;;10.89;66.19
45369;BME280;51342;55.250;37.668;2023-04-28T00:39:01;99023.00;;;10.88;65.80
45369;BME280;51342;55.250;37.668;2023-04-28T00:41:33;99023.97;;;10.90;65.86
45369;BME280;51342;55.250;37.668;2023-04-28T00:44:05;99031.72;;;10.90;66.02
45369;BME280;51342;55.250;37.668;2023-04-28T00:46:36;99038.63;;;10.90;65.86
45369;BME280;51342;55.250;37.668;2023-04-28T00:49:08;99031.59;;;10.87;66.08
45369;BME280;51342;55.250;37.668;2023-04-28T00:51:40;99035.00;;;10.86;65.91
45369;BME280;51342;55.250;37.668;2023-04-28T00:54:15;99035.00;;;10.86;66.34
45369;BME280;51342;55.250;37.668;2023-04-28T00:57:00;99031.78;;;10.92;66.28
45369;BME280;51342;55.250;37.668;2023-04-28T00:59:32;99024.84;;;10.91;66.33
45369;BME280;51342;55.250;37.668;2023-04-28T01:02:04;99025.72;;;10.91;66.82
45369;BME280;51342;55.250;37.668;2023-04-28T01:04:37;99020.56;;;10.91;66.88
45369;BME280;51342;55.250;37.668;2023-04-28T01:07:21;99014.34;;;10.87;66.80
45369;BME280;51342;55.250;37.668;2023-04-28T01:09:53;99018.78;;;10.90;66.67
45369;BME280;51342;55.250;37.668;2023-04-28T01:12:29;99018.69;;;10.88;66.75
45369;BME280;51342;55.250;37.668;2023-04-28T01:15:02;99014.41;;;10.89;66.93
45369;BME280;51342;55.250;37.668;2023-04-28T01:18:10;99020.34;;;10.86;67.12
45369;BME280;51342;55.250;37.668;2023-04-28T01:20:42;99029.06;;;10.88;67.28
45369;BME280;51342;55.250;37.668;2023-04-28T01:23:15;99014.22;;;10.84;67.35
45369;BME280;51342;55.250;37.668;2023-04-28T01:25:47;99029.06;;;10.88;67.38
45369;BME280;51342;55.250;37.668;2023-04-28T01:28:18;99024.75;;;10.89;67.81
45369;BME280;51342;55.250;37.668;2023-04-28T01:31:02;99018.63;;;10.87;67.54
45369;BME280;51342;55.250;37.668;2023-04-28T01:33:33;99016.22;;;10.90;67.60
45369;BME280;51342;55.250;37.668;2023-04-28T01:36:17;99002.22;;;10.86;67.55
45369;BME280;51342;55.250;37.668;2023-04-28T01:38:49;99009.38;;;10.92;67.92
45369;BME280;51342;55.250;37.668;2023-04-28T01:41:20;99005.84;;;10.90;67.61
45369;BME280;51342;55.250;37.668;2023-04-28T01:43:52;99011.91;;;10.91;67.75
45369;BME280;51342;55.250;37.668;2023-04-28T01:46:24;99014.50;;;10.91;67.78
45369;BME280;51342;55.250;37.668;2023-04-28T01:48:55;99014.56;;;10.92;68.05
45369;BME280;51342;55.250;37.668;2023-04-28T01:51:50;99027.44;;;10.91;67.65
45369;BME280;51342;55.250;37.668;2023-04-28T01:54:34;99027.06;;;10.83;67.69
45369;BME280;51342;55.250;37.668;2023-04-28T01:57:06;99036.91;;;10.90;68.10
45369;BME280;51342;55.250;37.668;2023-04-28T01:59:37;99035.25;;;10.92;68.03
45369;BME280;51342;55.250;37.668;2023-04-28T02:02:10;99033.56;;;10.93;67.91
45369;BME280;51342;55.250;37.668;2023-04-28T02:04:42;99037.19;;;10.96;68.02
45369;BME280;51342;55.250;37.668;2023-04-28T02:07:13;99039.69;;;10.95;68.23
45369;BME280;51342;55.250;37.668;2023-04-28T02:09:46;99037.19;;;10.96;68.12
45369;BME280;51342;55.250;37.668;2023-04-28T02:12:41;99029.31;;;10.95;68.08
45369;BME280;51342;55.250;37.668;2023-04-28T02:15:25;99035.25;;;10.92;67.96
45369;BME280;51342;55.250;37.668;2023-04-28T02:18:09;99037.03;;;10.93;68.27
45369;BME280;51342;55.250;37.668;2023-04-28T02:20:44;99041.47;;;10.96;68.70
45369;BME280;51342;55.250;37.668;2023-04-28T02:23:27;99038.72;;;10.93;68.49
45369;BME280;51342;55.250;37.668;2023-04-28T02:26:14;99040.44;;;10.92;68.61
45369;BME280;51342;55.250;37.668;2023-04-28T02:29:04;99048.19;;;10.92;68.60
45369;BME280;51342;55.250;37.668;2023-04-28T02:31:47;99055.09;;;10.92;68.71
45369;BME280;51342;55.250;37.668;2023-04-28T02:34:30;99058.56;;;10.92;68.47
45369;BME280;51342;55.250;37.668;2023-04-28T02:37:14;99048.88;;;10.88;68.78
45369;BME280;51342;55.250;37.668;2023-04-28T02:39:46;99056.72;;;10.90;68.55
45369;BME280;51342;55.250;37.668;2023-04-28T02:42:18;99060.09;;;10.88;68.99
45369;BME280;51342;55.250;37.668;2023-04-28T02:44:50;99063.66;;;10.91;69.02
45369;BME280;51342;55.250;37.668;2023-04-28T02:47:21;99061.00;;;10.89;68.75
45369;BME280;51342;55.250;37.668;2023-04-28T02:49:53;99064.41;;;10.88;68.97
45369;BME280;51342;55.250;37.668;2023-04-28T02:52:24;99056.56;;;10.86;69.21
45369;BME280;51342;55.250;37.668;2023-04-28T02:54:55;99052.28;;;10.87;69.21
45369;BME280;51342;55.250;37.668;2023-04-28T02:57:39;99058.50;;;10.91;69.09
45369;BME280;51342;55.250;37.668;2023-04-28T03:00:11;99043.84;;;10.91;68.95
45369;BME280;51342;55.250;37.668;2023-04-28T03:02:50;99057.00;;;10.96;69.20
45369;BME280;51342;55.250;37.668;2023-04-28T03:05:21;99057.88;;;10.96;69.32
45369;BME280;51342;55.250;37.668;2023-04-28T03:07:53;99070.06;;;10.99;68.91
45369;BME280;51342;55.250;37.668;2023-04-28T03:10:36;99067.53;;;11.00;69.54
45369;BME280;51342;55.250;37.668;2023-04-28T03:13:08;99067.91;;;11.08;69.41
45369;BME280;51342;55.250;37.668;2023-04-28T03:15:40;99066.19;;;11.08;69.40
45369;BME280;51342;55.250;37.668;2023-04-28T03:18:11;99063.00;;;11.14;69.02
45369;BME280;51342;55.250;37.668;2023-04-28T03:20:43;99062.44;;;11.21;69.17
45369;BME280;51342;55.250;37.668;2023-04-28T03:23:14;99061.97;;;11.30;69.51
45369;BME280;51342;55.250;37.668;2023-04-28T03:25:46;99061.44;;;11.37;69.48
45369;BME280;51342;55.250;37.668;2023-04-28T03:28:17;99065.44;;;11.50;69.18
45369;BME280;51342;55.250;37.668;2023-04-28T03:30:49;99070.97;;;11.57;68.98
45369;BME280;51342;55.250;37.668;2023-04-28T03:33:21;99074.75;;;11.65;68.63
45369;BME280;51342;55.250;37.668;2023-04-28T03:35:53;99074.28;;;11.74;68.54
45369;BME280;51342;55.250;37.668;2023-04-28T03:38:24;99081.38;;;11.80;68.39
45369;BME280;51342;55.250;37.668;2023-04-28T03:40:56;99077.22;;;11.82;68.37
45369;BME280;51342;55.250;37.668;2023-04-28T03:43:46;99066.91;;;11.83;68.22
45369;BME280;51342;55.250;37.668;2023-04-28T03:46:33;99084.31;;;11.86;68.37
45369;BME280;51342;55.250;37.668;2023-04-28T03:49:05;99082.66;;;11.88;68.49
45369;BME280;51342;55.250;37.668;2023-04-28T03:51:36;99088.78;;;11.90;68.41
45369;BME280;51342;55.250;37.668;2023-04-28T03:54:08;99095.81;;;11.92;68.34
45369;BME280;51342;55.250;37.668;2023-04-28T03:56:40;99098.41;;;11.92;68.41
45369;BME280;51342;55.250;37.668;2023-04-28T03:59:14;99101.00;;;11.92;68.24
45369;BME280;51342;55.250;37.668;2023-04-28T04:01:47;99105.34;;;11.93;67.77
45369;BME280;51342;55.250;37.668;2023-04-28T04:04:18;99107.19;;;11.96;67.76
45369;BME280;51342;55.250;37.668;2023-04-28T04:06:51;99110.47;;;11.92;68.29
45369;BME280;51342;55.250;37.668;2023-04-28T04:09:22;99120.97;;;11.95;68.30
45369;BME280;51342;55.250;37.668;2023-04-28T04:12:03;99119.88;;;11.90;68.54
45369;BME280;51342;55.250;37.668;2023-04-28T04:14:35;99102.63;;;11.90;69.17
45369;BME280;51342;55.250;37.668;2023-04-28T04:17:06;99099.13;;;11.90;69.06
45369;BME280;51342;55.250;37.668;2023-04-28T04:19:37;99094.69;;;11.86;69.44
45369;BME280;51342;55.250;37.668;2023-04-28T04:22:09;99105.16;;;11.89;69.97
45369;BME280;51342;55.250;37.668;2023-04-28T04:24:40;99107.81;;;11.90;70.58
45369;BME280;51342;55.250;37.668;2023-04-28T04:27:12;99109.66;;;11.93;70.75
45369;BME280;51342;55.250;37.668;2023-04-28T04:29:56;99101.00;;;11.92;71.19
45369;BME280;51342;55.250;37.668;2023-04-28T04:32:53;99097.63;;;11.95;71.57
45369;BME280;51342;55.250;37.668;2023-04-28T04:35:24;99093.41;;;11.97;71.14
45369;BME280;51342;55.250;37.668;2023-04-28T04:37:56;99100.41;;;12.00;71.53
45369;BME280;51342;55.250;37.668;2023-04-28T04:40:28;99083.84;;;11.96;71.50
45369;BME280;51342;55.250;37.668;2023-04-28T04:43:00;99093.59;;;12.02;71.50
45369;BME280;51342;55.250;37.668;2023-04-28T04:45:32;99091.88;;;12.02;72.07
45369;BME280;51342;55.250;37.668;2023-04-28T04:48:06;99097.25;;;12.07;71.60
45369;BME280;51342;55.250;37.668;2023-04-28T04:50:38;99094.84;;;12.11;72.23
45369;BME280;51342;55.250;37.668;2023-04-28T04:53:09;99094.03;;;12.12;71.66
45369;BME280;51342;55.250;37.668;2023-04-28T04:55:41;99093.44;;;12.19;71.88
45369;BME280;51342;55.250;37.668;2023-04-28T04:58:13;99097.00;;;12.22;71.90
45369;BME280;51342;55.250;37.668;2023-04-28T05:01:02;99099.84;;;12.28;71.51
45369;BME280;51342;55.250;37.668;2023-04-28T05:03:34;99100.16;;;12.35;71.40
45369;BME280;51342;55.250;37.668;2023-04-28T05:06:06;99098.97;;;12.48;71.58
45369;BME280;51342;55.250;37.668;2023-04-28T05:08:52;99105.75;;;12.67;71.29
45369;BME280;51342;55.250;37.668;2023-04-28T05:11:24;99102.38;;;12.92;71.58
45369;BME280;51342;55.250;37.668;2023-04-28T05:13:56;99106.63;;;13.12;70.94
45369;BME280;51342;55.250;37.668;2023-04-28T05:16:28;99111.50;;;13.25;70.39
45369;BME280;51342;55.250;37.668;2023-04-28T05:19:12;99104.94;;;13.35;69.92
45369;BME280;51342;55.250;37.668;2023-04-28T05:21:44;99111.34;;;13.45;69.95
45369;BME280;51342;55.250;37.668;2023-04-28T05:24:19;99107.19;;;13.50;69.95
45369;BME280;51342;55.250;37.668;2023-04-28T05:26:57;99102.06;;;13.51;69.76
45369;BME280;51342;55.250;37.668;2023-04-28T05:29:28;99102.16;;;13.55;69.92
45369;BME280;51342;55.250;37.668;2023-04-28T05:32:00;99114.31;;;13.56;69.58
45369;BME280;51342;55.250;37.668;2023-04-28T05:34:31;99106.63;;;13.59;68.97
45369;BME280;51342;55.250;37.668;2023-04-28T05:37:03;99104.25;;;13.65;68.95
45369;BME280;51342;55.250;37.668;2023-04-28T05:39:35;99102.44;;;13.62;69.16
45369;BME280;51342;55.250;37.668;2023-04-28T05:42:08;99110.25;;;13.62;69.12
45369;BME280;51342;55.250;37.668;2023-04-28T05:44:40;99108.44;;;13.61;69.31
45369;BME280;51342;55.250;37.668;2023-04-28T05:47:11;99107.56;;;13.61;69.49
45369;BME280;51342;55.250;37.668;2023-04-28T05:49:43;99111.13;;;13.63;69.78
45369;BME280;51342;55.250;37.668;2023-04-28T05:52:15;99102.44;;;13.62;69.32
45369;BME280;51342;55.250;37.668;2023-04-28T05:54:46;99102.38;;;13.61;69.65
45369;BME280;51342;55.250;37.668;2023-04-28T05:57:18;99098.06;;;13.61;69.70
45369;BME280;51342;55.250;37.668;2023-04-28T05:59:50;99104.16;;;13.62;70.04
45369;BME280;51342;55.250;37.668;2023-04-28T06:02:22;99107.53;;;13.59;70.46
45369;BME280;51342;55.250;37.668;2023-04-28T06:04:53;99111.56;;;13.51;70.35
45369;BME280;51342;55.250;37.668;2023-04-28T06:07:24;99104.59;;;13.50;70.67
45369;BME280;51342;55.250;37.668;2023-04-28T06:09:56;99107.13;;;13.48;71.00
45369;BME280;51342;55.250;37.668;2023-04-28T06:12:27;99112.38;;;13.50;71.42
45369;BME280;51342;55.250;37.668;2023-04-28T06:14:59;99111.63;;;13.52;71.83
45369;BME280;51342;55.250;37.668;2023-04-28T06:17:31;99120.31;;;13.53;71.40
45369;BME280;51342;55.250;37.668;2023-04-28T06:20:04;99115.22;;;13.56;71.62
45369;BME280;51342;55.250;37.668;2023-04-28T06:22:35;99117.81;;;13.56;71.34
45369;BME280;51342;55.250;37.668;2023-04-28T06:25:07;99117.97;;;13.61;71.56
45369;BME280;51342;55.250;37.668;2023-04-28T06:27:49;99118.97;;;13.64;71.77
45369;BME280;51342;55.250;37.668;2023-04-28T06:30:23;99121.75;;;13.69;71.64
45369;BME280;51342;55.250;37.668;2023-04-28T06:32:54;99112.97;;;13.67;71.62
45369;BME280;51342;55.250;37.668;2023-04-28T06:35:27;99111.38;;;13.70;72.12
45369;BME280;51342;55.250;37.668;2023-04-28T06:37:59;99125.31;;;13.72;72.04
45369;BME280;51342;55.250;37.668;2023-04-28T06:40:31;99115.00;;;13.74;71.91
45369;BME280;51342;55.250;37.668;2023-04-28T06:43:05;99101.78;;;13.68;72.30
45369;BME280;51342;55.250;37.668;2023-04-28T06:45:47;99111.59;;;13.76;72.36
45369;BME280;51342;55.250;37.668;2023-04-28T06:48:19;99122.78;;;13.74;72.58
45369;BME280;51342;55.250;37.668;2023-04-28T06:50:51;99119.41;;;13.76;72.75
45369;BME280;51342;55.250;37.668;2023-04-28T06:53:22;99121.25;;;13.79;73.07
45369;BME280;51342;55.250;37.668;2023-04-28T06:55:54;99111.81;;;13.83;73.21
45369;BME280;51342;55.250;37.668;2023-04-28T06:58:26;99118.19;;;13.91;73.59
45369;BME280;51342;55.250;37.668;2023-04-28T07:00:58;99114.94;;;13.98;72.99
45369;BME280;51342;55.250;37.668;2023-04-28T07:03:29;99112.69;;;14.07;72.90
45369;BME280;51342;55.250;37.668;2023-04-28T07:06:00;99112.13;;;14.17;73.42
45369;BME280;51342;55.250;37.668;2023-04-28T07:08:34;99112.44;;;14.26;73.38
45369;BME280;51342;55.250;37.668;2023-04-28T07:11:06;99120.41;;;14.31;72.42
45369;BME280;51342;55.250;37.668;2023-04-28T07:13:38;99120.81;;;14.43;72.10
45369;BME280;51342;55.250;37.668;2023-04-28T07:16:09;99123.16;;;14.61;72.81
45369;BME280;51342;55.250;37.668;2023-04-28T07:18:41;99122.81;;;14.77;73.18
45369;BME280;51342;55.250;37.668;2023-04-28T07:21:12;99123.28;;;14.93;71.81
45369;BME280;51342;55.250;37.668;2023-04-28T07:23:43;99131.34;;;15.02;71.43
45369;BME280;51342;55.250;37.668;2023-04-28T07:26:15;99123.66;;;15.05;70.41
45369;BME280;51342;55.250;37.668;2023-04-28T07:28:47;99123.69;;;15.06;70.55
45369;BME280;51342;55.250;37.668;2023-04-28T07:31:18;99132.56;;;15.13;70.21
45369;BME280;51342;55.250;37.668;2023-04-28T07:33:51;99128.22;;;15.14;69.88
45369;BME280;51342;55.250;37.668;2023-04-28T07:36:23;99127.34;;;15.13;69.81
45369;BME280;51342;55.250;37.668;2023-04-28T07:39:07;99133.34;;;15.09;69.75
45369;BME280;51342;55.250;37.668;2023-04-28T07:41:38;99132.38;;;15.07;69.36
45369;BME280;51342;55.250;37.668;2023-04-28T07:44:09;99135.94;;;15.09;68.83
45369;BME280;51342;55.250;37.668;2023-04-28T07:46:41;99129.59;;;15.01;68.92
45369;BME280;51342;55.250;37.668;2023-04-28T07:49:12;99143.53;;;15.03;69.61
45369;BME280;51342;55.250;37.668;2023-04-28T07:51:44;99142.53;;;14.98;69.07
45369;BME280;51342;55.250;37.668;2023-04-28T07:54:16;99144.19;;;14.96;69.12
45369;BME280;51342;55.250;37.668;2023-04-28T07:56:47;99146.72;;;14.93;69.15
45369;BME280;51342;55.250;37.668;2023-04-28T07:59:20;99151.81;;;14.90;69.41
45369;BME280;51342;55.250;37.668;2023-04-28T08:01:51;99156.81;;;14.82;69.19
45369;BME280;51342;55.250;37.668;2023-04-28T08:04:35;99147.91;;;14.75;69.36
45369;BME280;51342;55.250;37.668;2023-04-28T08:07:08;99152.09;;;14.70;69.81
45369;BME280;51342;55.250;37.668;2023-04-28T08:09:40;99147.66;;;14.68;70.38
45369;BME280;51342;55.250;37.668;2023-04-28T08:12:14;99145.84;;;14.65;70.46
45369;BME280;51342;55.250;37.668;2023-04-28T08:14:45;99146.56;;;14.61;70.51
45369;BME280;51342;55.250;37.668;2023-04-28T08:17:17;99158.81;;;14.64;70.67
45369;BME280;51342;55.250;37.668;2023-04-28T08:19:48;99152.66;;;14.62;71.07
45369;BME280;51342;55.250;37.668;2023-04-28T08:22:20;99150.91;;;14.61;71.47
45369;BME280;51342;55.250;37.668;2023-04-28T08:24:51;99155.31;;;14.63;71.67
45369;BME280;51342;55.250;37.668;2023-04-28T08:27:23;99151.91;;;14.64;72.01
45369;BME280;51342;55.250;37.668;2023-04-28T08:29:55;99150.25;;;14.68;72.45
45369;BME280;51342;55.250;37.668;2023-04-28T08:32:27;99158.22;;;14.72;72.47
45369;BME280;51342;55.250;37.668;2023-04-28T08:34:58;99153.22;;;14.78;71.99
45369;BME280;51342;55.250;37.668;2023-04-28T08:37:30;99148.28;;;14.88;72.64
45369;BME280;51342;55.250;37.668;2023-04-28T08:40:02;99146.94;;;15.00;72.29
45369;BME280;51342;55.250;37.668;2023-04-28T08:42:39;99139.16;;;15.02;71.88
45369;BME280;51342;55.250;37.668;2023-04-28T08:45:14;99147.34;;;15.43;72.02
45369;BME280;51342;55.250;37.668;2023-04-28T08:47:48;99135.94;;;15.68;71.45
45369;BME280;51342;55.250;37.668;2023-04-28T08:50:23;99125.88;;;15.81;71.39
45369;BME280;51342;55.250;37.668;2023-04-28T08:52:56;99133.25;;;15.98;70.84
45369;BME280;51342;55.250;37.668;2023-04-28T08:55:28;99136.13;;;16.07;69.94
45369;BME280;51342;55.250;37.668;2023-04-28T08:58:00;99132.72;;;16.11;69.89
45369;BME280;51342;55.250;37.668;2023-04-28T09:00:36;99130.09;;;16.09;69.06
45369;BME280;51342;55.250;37.668;2023-04-28T09:03:07;99135.16;;;16.03;67.91
45369;BME280;51342;55.250;37.668;2023-04-28T09:05:39;99136.81;;;16.00;67.87
45369;BME280;51342;55.250;37.668;2023-04-28T09:08:10;99131.66;;;16.03;67.89
45369;BME280;51342;55.250;37.668;2023-04-28T09:10:42;99131.75;;;16.06;68.65
45369;BME280;51342;55.250;37.668;2023-04-28T09:13:26;99135.34;;;16.11;68.15
45369;BME280;51342;55.250;37.668;2023-04-28T09:16:01;99132.84;;;16.15;66.68
45369;BME280;51342;55.250;37.668;2023-04-28T09:18:33;99127.59;;;16.14;66.81
45369;BME280;51342;55.250;37.668;2023-04-28T09:21:06;99129.50;;;16.20;66.57
45369;BME280;51342;55.250;37.668;2023-04-28T09:23:47;99130.47;;;16.23;66.42
45369;BME280;51342;55.250;37.668;2023-04-28T09:26:19;99139.34;;;16.31;66.62
